createdAt,value
2018-11-22T00:07:20.584Z,19.10
2018-11-22T00:10:00.603Z,15.53
2018-11-22T00:13:09.507Z,17.07
2018-11-22T00:15:49.353Z,34.73
2018-11-22T00:18:35.113Z,23.27
2018-11-22T00:23:48.253Z,17.63
2018-11-22T00:29:14.867Z,17.20
2018-11-22T00:31:49.233Z,16.07
2018-11-22T00:34:22.871Z,16.03
2018-11-22T00:37:14.353Z,20.17
2018-11-22T00:39:52.907Z,19.33
2018-11-22T00:45:17.216Z,16.20
2018-11-22T12:18:14.130Z,40.40
2018-11-22T12:20:41.509Z,41.20
2018-11-22T12:23:08.708Z,37.37
2018-11-22T12:25:35.895Z,38.13
2018-11-22T12:28:03.440Z,36.03
2018-11-22T12:30:32.010Z,39.13
2018-11-22T12:33:01.869Z,42.60
2018-11-22T12:35:34.481Z,37.00
2018-11-22T12:38:07.280Z,39.50
2018-11-22T12:40:34.476Z,41.90
2018-11-22T12:43:02.240Z,36.33
2018-11-22T12:45:29.999Z,34.40
2018-11-22T12:47:57.466Z,35.03
2018-11-22T12:50:24.685Z,37.70
2018-11-22T12:52:51.853Z,36.30
2018-11-22T12:55:19.162Z,35.80
2018-11-22T12:57:46.345Z,36.03
2018-11-22T13:00:14.735Z,37.20
2018-11-22T13:02:42.873Z,38.13
2018-11-22T13:05:11.551Z,35.57
2018-11-22T13:07:39.574Z,36.90
2018-11-22T13:10:10.222Z,38.80
2018-11-22T13:12:37.391Z,40.37
2018-11-22T13:15:04.944Z,48.47
2018-11-22T13:17:32.108Z,55.80
2018-11-22T13:19:59.295Z,35.93
2018-11-22T13:22:26.576Z,40.07
2018-11-22T13:24:53.947Z,51.33
2018-11-22T13:27:21.111Z,48.30
2018-11-22T13:29:48.275Z,42.87
2018-11-22T13:32:21.251Z,77.00
2018-11-22T13:34:43.213Z,43.40
2018-11-22T13:37:10.372Z,52.37
2018-11-22T13:39:37.599Z,42.07
2018-11-22T13:42:04.799Z,44.43
2018-11-22T13:44:31.955Z,39.70
2018-11-22T13:46:59.162Z,40.20
2018-11-22T13:49:26.352Z,47.67
2018-11-22T13:51:53.554Z,45.53
2018-11-22T13:54:20.714Z,43.23
2018-11-22T13:56:47.908Z,54.10
2018-11-22T13:59:15.080Z,49.53
2018-11-22T14:01:42.272Z,46.73
2018-11-22T14:04:09.426Z,44.73
2018-11-22T14:06:36.698Z,56.63
2018-11-22T14:09:04.757Z,51.83
2018-11-22T14:11:31.943Z,51.73
2018-11-22T14:13:59.148Z,67.60
2018-11-22T14:16:26.316Z,60.23
2018-11-22T14:18:53.477Z,56.80
2018-11-22T14:21:20.660Z,51.70
2018-11-22T14:23:47.903Z,51.47
2018-11-22T14:26:15.064Z,45.50
2018-11-22T14:28:42.258Z,47.80
2018-11-22T14:31:09.472Z,46.37
2018-11-22T14:33:36.668Z,48.27
2018-11-22T14:36:03.851Z,43.37
2018-11-22T14:38:31.036Z,43.77
2018-11-22T14:40:58.265Z,43.93
2018-11-22T14:43:25.439Z,44.93
2018-11-22T14:45:52.632Z,43.43
2018-11-22T14:48:19.838Z,58.47
2018-11-22T14:50:48.903Z,38.80
2018-11-22T14:53:17.108Z,42.00
2018-11-22T14:55:44.325Z,45.43
2018-11-22T14:58:11.496Z,36.13
2018-11-22T15:00:38.713Z,42.43
2018-11-22T15:03:05.991Z,40.27
2018-11-22T15:05:33.185Z,40.00
2018-11-22T15:08:00.395Z,43.60
2018-11-22T15:10:27.577Z,36.97
2018-11-22T15:12:54.762Z,39.47
2018-11-22T15:15:23.351Z,46.60
2018-11-22T15:17:50.515Z,36.37
2018-11-22T15:20:18.842Z,39.63
2018-11-22T15:22:46.925Z,45.57
2018-11-22T15:25:22.166Z,34.17
2018-11-22T15:27:49.412Z,41.33
2018-11-22T15:30:18.172Z,36.40
2018-11-22T15:32:45.398Z,33.53
2018-11-22T15:35:14.723Z,34.60
2018-11-22T15:37:42.051Z,41.23
2018-11-22T15:40:10.595Z,31.00
2018-11-22T15:42:37.833Z,29.50
2018-11-22T15:45:05.526Z,39.53
2018-11-22T15:47:32.696Z,43.13
2018-11-22T15:49:59.860Z,28.57
2018-11-22T15:52:27.052Z,36.43
2018-11-22T15:54:54.240Z,33.03
2018-11-22T15:57:21.406Z,31.40
2018-11-22T15:59:48.664Z,32.13
2018-11-22T16:02:16.041Z,32.90
2018-11-22T16:04:43.208Z,63.30
2018-11-22T16:07:10.479Z,41.13
2018-11-22T16:09:37.654Z,36.93
2018-11-22T16:12:04.969Z,30.33
2018-11-22T16:14:32.147Z,31.47
2018-11-22T16:16:59.343Z,32.53
2018-11-22T16:19:26.504Z,27.63
2018-11-22T16:21:53.710Z,29.67
2018-11-22T16:24:20.874Z,26.87
2018-11-22T16:26:48.059Z,26.70
2018-11-22T16:29:15.220Z,27.77
2018-11-22T16:31:42.415Z,28.27
2018-11-22T16:34:09.575Z,26.43
2018-11-22T16:36:36.732Z,27.70
2018-11-22T16:39:04.975Z,29.03
2018-11-22T16:41:32.168Z,29.40
2018-11-22T16:44:03.197Z,29.03
2018-11-22T16:46:26.526Z,27.40
2018-11-22T16:48:53.720Z,31.77
2018-11-22T16:51:20.879Z,32.63
2018-11-22T16:53:48.067Z,27.93
2018-11-22T16:56:15.404Z,25.70
2018-11-22T16:58:42.588Z,25.50
2018-11-22T17:01:09.771Z,26.60
2018-11-22T17:03:36.939Z,26.73
2018-11-22T17:06:04.629Z,28.73
2018-11-22T17:08:31.799Z,25.70
2018-11-22T17:10:59.013Z,27.60
2018-11-22T17:13:26.192Z,28.03
2018-11-22T17:15:53.350Z,26.33
2018-11-22T17:18:20.533Z,25.10
2018-11-22T17:20:47.710Z,28.80
2018-11-22T17:23:14.860Z,31.30
2018-11-22T17:25:42.075Z,27.07
2018-11-22T17:28:09.734Z,25.33
2018-11-22T17:30:41.387Z,26.30
2018-11-22T17:33:08.600Z,24.47
2018-11-22T17:35:36.103Z,26.47
2018-11-22T17:38:05.679Z,27.00
2018-11-22T17:40:34.499Z,33.63
2018-11-22T17:43:02.267Z,31.90
2018-11-22T17:45:33.791Z,24.43
2018-11-22T17:48:01.588Z,28.43
2018-11-22T17:50:29.468Z,31.47
2018-11-22T17:52:56.803Z,28.07
2018-11-22T17:55:25.688Z,31.13
2018-11-22T17:57:52.871Z,28.87
2018-11-22T18:00:22.219Z,31.27
2018-11-22T18:02:50.761Z,26.73
2018-11-22T18:05:18.289Z,29.43
2018-11-22T18:07:45.484Z,25.47
2018-11-22T18:10:14.424Z,25.57
2018-11-22T18:12:43.129Z,30.57
2018-11-22T18:15:11.723Z,30.67
2018-11-22T18:17:38.945Z,26.80
2018-11-22T18:20:14.668Z,32.10
2018-11-22T18:22:42.075Z,26.30
2018-11-22T18:25:10.731Z,31.13
2018-11-22T18:27:38.104Z,31.00
2018-11-22T18:30:06.937Z,37.53
2018-11-22T18:32:34.132Z,29.70
2018-11-22T18:35:01.365Z,30.13
2018-11-22T18:37:28.547Z,30.97
2018-11-22T18:39:55.744Z,32.33
2018-11-22T18:42:22.920Z,34.57
2018-11-22T18:44:50.098Z,36.63
2018-11-22T18:47:17.989Z,36.00
2018-11-22T18:49:45.166Z,33.10
2018-11-22T18:52:12.344Z,39.13
2018-11-22T18:54:39.928Z,40.20
2018-11-22T18:57:07.156Z,34.93
2018-11-22T18:59:34.333Z,29.13
2018-11-22T19:02:02.041Z,35.70
2018-11-22T19:04:29.236Z,39.00
2018-11-22T19:06:56.391Z,42.47
2018-11-22T19:09:23.549Z,39.70
2018-11-22T19:11:51.270Z,42.17
2018-11-22T19:14:19.564Z,34.63
2018-11-22T19:16:47.123Z,33.70
2018-11-22T19:19:15.534Z,39.00
2018-11-22T19:21:44.006Z,35.20
2018-11-22T19:24:12.677Z,34.27
2018-11-22T19:26:42.483Z,35.23
2018-11-22T19:29:10.853Z,37.33
2018-11-22T19:31:38.480Z,36.87
2018-11-22T19:34:07.109Z,38.27
2018-11-22T19:36:34.895Z,38.37
2018-11-22T19:39:02.817Z,40.23
2018-11-22T19:41:30.807Z,34.60
2018-11-22T19:43:58.694Z,39.00
2018-11-22T19:46:26.761Z,31.47
2018-11-22T19:48:53.995Z,41.30
2018-11-22T19:51:21.185Z,41.90
2018-11-22T19:53:48.343Z,37.87
2018-11-22T19:56:15.519Z,37.43
2018-11-22T19:58:42.689Z,38.80
2018-11-22T20:01:09.880Z,38.17
2018-11-22T20:03:37.063Z,34.40
2018-11-22T20:06:04.244Z,32.67
2018-11-22T20:08:31.457Z,30.03
2018-11-22T20:10:58.636Z,34.20
2018-11-22T20:13:25.829Z,31.60
2018-11-22T20:15:52.987Z,37.70
2018-11-22T20:18:20.148Z,33.30
2018-11-22T20:20:50.058Z,29.53
2018-11-22T20:23:17.656Z,33.80
2018-11-22T20:25:41.714Z,33.93
2018-11-22T20:28:08.864Z,34.83
2018-11-22T20:30:38.507Z,40.90
2018-11-22T20:33:05.696Z,33.60
2018-11-22T20:35:32.865Z,35.43
2018-11-22T20:38:00.052Z,32.53
2018-11-22T20:40:27.817Z,33.73
2018-11-22T20:42:54.983Z,33.33
2018-11-22T20:45:23.345Z,32.87
2018-11-22T20:47:52.154Z,36.07
2018-11-22T20:50:20.591Z,33.70
2018-11-22T20:52:47.752Z,37.80
2018-11-22T20:55:20.150Z,32.87
2018-11-22T20:57:48.643Z,32.13
2018-11-22T21:00:17.088Z,35.90
2018-11-22T21:02:44.244Z,34.50
2018-11-22T21:05:12.023Z,34.43
2018-11-22T21:07:39.459Z,34.57
2018-11-22T21:10:08.051Z,35.23
2018-11-22T21:12:35.211Z,35.23
2018-11-22T21:15:02.591Z,36.80
2018-11-22T21:17:29.768Z,37.43
2018-11-22T21:19:56.921Z,38.87
2018-11-22T21:22:24.109Z,36.93
2018-11-22T21:24:51.260Z,33.70
2018-11-22T21:27:18.415Z,35.03
2018-11-22T21:29:45.608Z,36.73
2018-11-22T21:32:13.760Z,38.20
2018-11-22T21:34:40.937Z,39.17
2018-11-22T21:37:08.087Z,38.60
2018-11-22T21:39:35.271Z,33.13
2018-11-22T21:42:02.717Z,42.37
2018-11-22T21:44:29.889Z,33.17
2018-11-22T21:46:57.063Z,37.57
2018-11-22T21:49:24.265Z,30.57
2018-11-22T21:51:51.451Z,36.87
2018-11-22T21:54:18.605Z,33.50
2018-11-22T21:56:45.774Z,35.83
2018-11-22T21:59:12.961Z,32.70
2018-11-22T22:01:40.134Z,37.33
2018-11-22T22:04:07.351Z,39.20
2018-11-22T22:06:34.533Z,36.63
2018-11-22T22:09:02.574Z,34.40
2018-11-22T22:11:29.772Z,31.53
2018-11-22T22:13:56.921Z,33.60
2018-11-22T22:16:24.107Z,34.87
2018-11-22T22:18:51.264Z,33.10
2018-11-22T22:21:18.474Z,32.70
2018-11-22T22:23:45.647Z,36.20
2018-11-22T22:26:12.836Z,36.57
2018-11-22T22:28:39.988Z,34.63
2018-11-22T22:31:07.176Z,35.63
2018-11-22T22:33:34.355Z,33.50
2018-11-22T22:36:01.538Z,41.50
2018-11-22T22:38:28.705Z,34.53
2018-11-22T22:40:55.894Z,38.83
2018-11-22T22:43:23.059Z,38.30
2018-11-22T22:45:50.228Z,39.30
2018-11-22T22:48:17.409Z,38.10
2018-11-22T22:50:44.570Z,37.43
2018-11-22T22:53:11.744Z,38.03
2018-11-22T22:55:38.891Z,39.97
2018-11-22T22:58:06.073Z,36.97
2018-11-22T23:00:38.785Z,42.17
2018-11-22T23:03:06.936Z,36.90
2018-11-22T23:05:34.439Z,40.90
2018-11-22T23:08:02.160Z,38.17
2018-11-22T23:10:29.316Z,34.70
2018-11-22T23:12:57.216Z,42.63
2018-11-22T23:15:25.205Z,36.13
2018-11-22T23:17:52.385Z,41.77
2018-11-22T23:20:20.898Z,36.70
2018-11-22T23:22:48.532Z,37.13
2018-11-22T23:25:16.524Z,34.17
2018-11-22T23:27:43.722Z,38.10
2018-11-22T23:30:17.175Z,54.13
2018-11-22T23:32:45.843Z,36.20
2018-11-22T23:35:13.035Z,34.50
2018-11-22T23:37:40.349Z,40.07
2018-11-22T23:40:08.452Z,36.20
2018-11-22T23:42:35.613Z,36.77
2018-11-22T23:45:02.800Z,40.10
2018-11-22T23:47:30.020Z,35.00
2018-11-22T23:49:57.207Z,39.43
2018-11-22T23:52:24.390Z,42.17
2018-11-22T23:54:51.563Z,47.67
2018-11-22T23:57:18.731Z,41.53
2018-11-22T23:59:45.884Z,42.23
